Accueil
METAR-TAF:

METAR-TAF

Aéroports :

Kotzebue, Alaska, États-Unis

latitude: 66-53-04N, longitude: 162-35-54W, altitude: 3 m

Observation

Le bulletin a été fait il y a 53 minutes, à 12:53 UTC
Vent 6 kt de est/sud-est
Température -27°C
Humidité 83%
Pression 1016 hPa
Visibilité: 16.1 km
Ciel clair

METAR: PAOT 291253Z AUTO 11006KT 10SM CLR M27/M29 A3000 RMK AO2 SLP159 T12671289 TSNO $

Heure: 04:46 (13:46 UTC)

Prévision

Le bulletin a été fait il y a 2 heures et 24 minutes, à 11:22 UTC
Prévision valable du 29 à 12 UTC au 01 à 12 UTC
Vent 6 kt de direction variable
Visibilité: 10 km
Ciel clair

TAF: PAOT 291122Z 2912/0112 VRB06KT P6SM SKC

Observations et prévisions météorologiques de plus de 4000 aéroports (messages METAR et TAF).

Les stations disponibles sont représentées par des disques jaunes et rouges sur la carte.

Passer la souris dessus pour voir le nom de la station.

Cliquer dessus pour voir les observations et prévisions météorologiques.

Pour changer de carte: cliquez sur les boutons verts avec une croix noire pour zoomer, sur le bouton vert avec un tiret pour effectuer un zoom arrière, ou sur les flèches vertes pour les cartes adjacentes.


METAR-TAF: